sensor_id;sensor_type;location;lat;lon;timestamp;P1;durP1;ratioP1;P2;durP2;ratioP2
39994;SDS011;25686;51.908;10.418;2023-03-23T00:01:22;2.63;;;1.02;;
39994;SDS011;25686;51.908;10.418;2023-03-23T00:03:26;1.42;;;0.80;;
39994;SDS011;25686;51.908;10.418;2023-03-23T00:05:29;3.03;;;1.00;;
39994;SDS011;25686;51.908;10.418;2023-03-23T00:07:30;1.92;;;0.70;;
39994;SDS011;25686;51.908;10.418;2023-03-23T00:09:32;2.70;;;0.88;;
39994;SDS011;25686;51.908;10.418;2023-03-23T00:11:34;2.80;;;1.05;;
39994;SDS011;25686;51.908;10.418;2023-03-23T00:13:35;1.35;;;1.02;;
39994;SDS011;25686;51.908;10.418;2023-03-23T00:15:36;2.25;;;0.77;;
39994;SDS011;25686;51.908;10.418;2023-03-23T00:17:41;3.80;;;1.10;;
39994;SDS011;25686;51.908;10.418;2023-03-23T00:19:43;3.28;;;1.00;;
39994;SDS011;25686;51.908;10.418;2023-03-23T00:21:51;1.10;;;1.00;;
39994;SDS011;25686;51.908;10.418;2023-03-23T00:23:53;3.55;;;1.20;;
39994;SDS011;25686;51.908;10.418;2023-03-23T00:25:55;5.07;;;1.02;;
39994;SDS011;25686;51.908;10.418;2023-03-23T00:27:56;3.08;;;0.90;;
39994;SDS011;25686;51.908;10.418;2023-03-23T00:29:57;3.78;;;1.10;;
39994;SDS011;25686;51.908;10.418;2023-03-23T00:31:58;3.00;;;1.00;;
39994;SDS011;25686;51.908;10.418;2023-03-23T00:33:59;2.05;;;0.90;;
39994;SDS011;25686;51.908;10.418;2023-03-23T00:36:01;1.67;;;0.90;;
39994;SDS011;25686;51.908;10.418;2023-03-23T00:38:03;2.15;;;0.90;;
39994;SDS011;25686;51.908;10.418;2023-03-23T00:40:04;3.40;;;1.05;;
39994;SDS011;25686;51.908;10.418;2023-03-23T00:42:10;2.22;;;0.80;;
39994;SDS011;25686;51.908;10.418;2023-03-23T00:44:12;1.48;;;0.85;;
39994;SDS011;25686;51.908;10.418;2023-03-23T00:46:18;2.10;;;1.02;;
39994;SDS011;25686;51.908;10.418;2023-03-23T00:48:21;2.47;;;1.10;;
39994;SDS011;25686;51.908;10.418;2023-03-23T00:50:22;1.92;;;0.90;;
39994;SDS011;25686;51.908;10.418;2023-03-23T00:52:23;2.58;;;1.15;;
39994;SDS011;25686;51.908;10.418;2023-03-23T00:54:24;1.55;;;1.00;;
39994;SDS011;25686;51.908;10.418;2023-03-23T00:56:25;6.13;;;1.27;;
39994;SDS011;25686;51.908;10.418;2023-03-23T00:58:26;2.88;;;1.30;;
39994;SDS011;25686;51.908;10.418;2023-03-23T01:00:27;4.47;;;1.35;;
39994;SDS011;25686;51.908;10.418;2023-03-23T01:02:28;4.35;;;1.50;;
39994;SDS011;25686;51.908;10.418;2023-03-23T01:04:29;2.22;;;1.30;;
39994;SDS011;25686;51.908;10.418;2023-03-23T01:06:36;2.97;;;1.13;;
39994;SDS011;25686;51.908;10.418;2023-03-23T01:08:40;3.95;;;1.90;;
39994;SDS011;25686;51.908;10.418;2023-03-23T01:10:45;4.38;;;1.60;;
39994;SDS011;25686;51.908;10.418;2023-03-23T01:12:46;3.17;;;1.63;;
39994;SDS011;25686;51.908;10.418;2023-03-23T01:14:47;6.63;;;1.60;;
39994;SDS011;25686;51.908;10.418;2023-03-23T01:16:48;8.27;;;1.67;;
39994;SDS011;25686;51.908;10.418;2023-03-23T01:18:49;9.05;;;1.92;;
39994;SDS011;25686;51.908;10.418;2023-03-23T01:20:50;4.53;;;1.77;;
39994;SDS011;25686;51.908;10.418;2023-03-23T01:22:51;5.93;;;1.92;;
39994;SDS011;25686;51.908;10.418;2023-03-23T01:24:53;3.80;;;1.60;;
39994;SDS011;25686;51.908;10.418;2023-03-23T01:26:53;7.05;;;1.85;;
39994;SDS011;25686;51.908;10.418;2023-03-23T01:28:54;3.90;;;1.80;;
39994;SDS011;25686;51.908;10.418;2023-03-23T01:30:59;5.22;;;1.83;;
39994;SDS011;25686;51.908;10.418;2023-03-23T01:33:00;8.43;;;2.03;;
39994;SDS011;25686;51.908;10.418;2023-03-23T01:35:01;5.70;;;1.80;;
39994;SDS011;25686;51.908;10.418;2023-03-23T01:37:02;3.33;;;1.75;;
39994;SDS011;25686;51.908;10.418;2023-03-23T01:39:04;4.18;;;1.90;;
39994;SDS011;25686;51.908;10.418;2023-03-23T01:41:05;3.90;;;1.85;;
39994;SDS011;25686;51.908;10.418;2023-03-23T01:43:09;6.95;;;1.83;;
39994;SDS011;25686;51.908;10.418;2023-03-23T01:47:20;3.90;;;1.90;;
39994;SDS011;25686;51.908;10.418;2023-03-23T01:49:30;5.25;;;2.03;;
39994;SDS011;25686;51.908;10.418;2023-03-23T01:51:32;4.55;;;1.60;;
39994;SDS011;25686;51.908;10.418;2023-03-23T01:53:52;4.05;;;1.70;;
39994;SDS011;25686;51.908;10.418;2023-03-23T01:55:55;4.18;;;1.85;;
39994;SDS011;25686;51.908;10.418;2023-03-23T01:57:57;3.03;;;1.85;;
39994;SDS011;25686;51.908;10.418;2023-03-23T01:59:59;4.78;;;2.03;;
39994;SDS011;25686;51.908;10.418;2023-03-23T02:02:07;3.95;;;1.98;;
39994;SDS011;25686;51.908;10.418;2023-03-23T02:04:11;6.10;;;2.25;;
39994;SDS011;25686;51.908;10.418;2023-03-23T02:06:14;5.82;;;2.30;;
39994;SDS011;25686;51.908;10.418;2023-03-23T02:08:15;6.72;;;1.95;;
39994;SDS011;25686;51.908;10.418;2023-03-23T02:10:18;4.97;;;2.08;;
39994;SDS011;25686;51.908;10.418;2023-03-23T02:12:19;5.25;;;1.83;;
39994;SDS011;25686;51.908;10.418;2023-03-23T02:14:20;5.22;;;2.00;;
39994;SDS011;25686;51.908;10.418;2023-03-23T02:16:25;4.18;;;2.00;;
39994;SDS011;25686;51.908;10.418;2023-03-23T02:18:45;4.97;;;2.10;;
39994;SDS011;25686;51.908;10.418;2023-03-23T02:21:13;5.32;;;1.90;;
39994;SDS011;25686;51.908;10.418;2023-03-23T02:25:33;3.72;;;1.90;;
39994;SDS011;25686;51.908;10.418;2023-03-23T02:28:02;5.75;;;2.00;;
39994;SDS011;25686;51.908;10.418;2023-03-23T02:30:14;3.88;;;1.80;;
39994;SDS011;25686;51.908;10.418;2023-03-23T02:32:33;2.75;;;1.92;;
39994;SDS011;25686;51.908;10.418;2023-03-23T02:34:42;3.90;;;1.80;;
39994;SDS011;25686;51.908;10.418;2023-03-23T02:36:52;6.05;;;1.75;;
39994;SDS011;25686;51.908;10.418;2023-03-23T02:38:59;5.65;;;1.83;;
39994;SDS011;25686;51.908;10.418;2023-03-23T02:41:01;5.28;;;1.60;;
39994;SDS011;25686;51.908;10.418;2023-03-23T02:43:03;4.40;;;1.85;;
39994;SDS011;25686;51.908;10.418;2023-03-23T02:45:09;4.55;;;1.90;;
39994;SDS011;25686;51.908;10.418;2023-03-23T02:47:12;4.53;;;2.00;;
39994;SDS011;25686;51.908;10.418;2023-03-23T02:49:14;4.10;;;1.90;;
39994;SDS011;25686;51.908;10.418;2023-03-23T02:51:15;2.85;;;1.90;;
39994;SDS011;25686;51.908;10.418;2023-03-23T02:53:18;5.45;;;1.90;;
39994;SDS011;25686;51.908;10.418;2023-03-23T02:55:20;2.70;;;1.80;;
39994;SDS011;25686;51.908;10.418;2023-03-23T02:57:22;4.15;;;2.00;;
39994;SDS011;25686;51.908;10.418;2023-03-23T02:59:25;4.40;;;1.65;;
39994;SDS011;25686;51.908;10.418;2023-03-23T03:03:28;2.60;;;1.70;;
39994;SDS011;25686;51.908;10.418;2023-03-23T03:05:38;3.22;;;1.88;;
39994;SDS011;25686;51.908;10.418;2023-03-23T03:07:44;3.90;;;1.80;;
39994;SDS011;25686;51.908;10.418;2023-03-23T03:11:50;3.40;;;1.60;;
39994;SDS011;25686;51.908;10.418;2023-03-23T03:13:57;7.45;;;2.25;;
39994;SDS011;25686;51.908;10.418;2023-03-23T03:16:07;3.95;;;2.10;;
39994;SDS011;25686;51.908;10.418;2023-03-23T03:20:36;4.88;;;1.80;;
39994;SDS011;25686;51.908;10.418;2023-03-23T03:22:39;3.17;;;1.98;;
39994;SDS011;25686;51.908;10.418;2023-03-23T03:24:43;3.33;;;1.67;;
39994;SDS011;25686;51.908;10.418;2023-03-23T03:26:46;3.63;;;1.80;;
39994;SDS011;25686;51.908;10.418;2023-03-23T03:28:47;4.68;;;1.90;;
39994;SDS011;25686;51.908;10.418;2023-03-23T03:30:49;3.65;;;1.70;;
39994;SDS011;25686;51.908;10.418;2023-03-23T03:32:53;4.22;;;1.75;;
39994;SDS011;25686;51.908;10.418;2023-03-23T03:34:54;4.13;;;2.45;;
39994;SDS011;25686;51.908;10.418;2023-03-23T03:36:55;3.75;;;1.70;;
39994;SDS011;25686;51.908;10.418;2023-03-23T03:38:58;2.65;;;1.58;;
39994;SDS011;25686;51.908;10.418;2023-03-23T03:40:59;6.78;;;2.00;;
39994;SDS011;25686;51.908;10.418;2023-03-23T03:43:00;3.58;;;1.90;;
39994;SDS011;25686;51.908;10.418;2023-03-23T03:45:01;3.05;;;1.70;;
39994;SDS011;25686;51.908;10.418;2023-03-23T03:47:02;2.47;;;1.80;;
39994;SDS011;25686;51.908;10.418;2023-03-23T03:49:05;5.55;;;1.98;;
39994;SDS011;25686;51.908;10.418;2023-03-23T03:51:06;5.13;;;2.00;;
39994;SDS011;25686;51.908;10.418;2023-03-23T03:53:08;4.05;;;2.10;;
39994;SDS011;25686;51.908;10.418;2023-03-23T03:55:09;11.27;;;2.35;;
39994;SDS011;25686;51.908;10.418;2023-03-23T03:57:10;5.47;;;2.22;;
39994;SDS011;25686;51.908;10.418;2023-03-23T03:59:11;3.28;;;1.92;;
39994;SDS011;25686;51.908;10.418;2023-03-23T04:01:12;5.22;;;2.40;;
39994;SDS011;25686;51.908;10.418;2023-03-23T04:03:15;4.22;;;1.95;;
39994;SDS011;25686;51.908;10.418;2023-03-23T04:05:16;3.80;;;1.92;;
39994;SDS011;25686;51.908;10.418;2023-03-23T04:07:18;6.30;;;1.90;;
39994;SDS011;25686;51.908;10.418;2023-03-23T04:09:21;4.20;;;1.85;;
39994;SDS011;25686;51.908;10.418;2023-03-23T04:11:22;6.63;;;2.58;;
39994;SDS011;25686;51.908;10.418;2023-03-23T04:13:23;6.50;;;2.20;;
39994;SDS011;25686;51.908;10.418;2023-03-23T04:15:24;2.35;;;2.00;;
39994;SDS011;25686;51.908;10.418;2023-03-23T04:17:25;4.68;;;2.40;;
39994;SDS011;25686;51.908;10.418;2023-03-23T04:19:26;6.20;;;2.25;;
39994;SDS011;25686;51.908;10.418;2023-03-23T04:21:28;4.05;;;2.25;;
39994;SDS011;25686;51.908;10.418;2023-03-23T04:23:29;3.80;;;2.15;;
39994;SDS011;25686;51.908;10.418;2023-03-23T04:25:33;3.97;;;2.40;;
39994;SDS011;25686;51.908;10.418;2023-03-23T04:27:35;4.93;;;2.47;;
39994;SDS011;25686;51.908;10.418;2023-03-23T04:29:36;4.75;;;2.20;;
39994;SDS011;25686;51.908;10.418;2023-03-23T04:31:37;2.95;;;2.22;;
39994;SDS011;25686;51.908;10.418;2023-03-23T04:33:38;6.07;;;2.60;;
39994;SDS011;25686;51.908;10.418;2023-03-23T04:35:41;3.30;;;2.33;;
39994;SDS011;25686;51.908;10.418;2023-03-23T04:37:42;4.47;;;2.40;;
39994;SDS011;25686;51.908;10.418;2023-03-23T04:39:43;5.80;;;2.50;;
39994;SDS011;25686;51.908;10.418;2023-03-23T04:41:45;4.78;;;2.75;;
39994;SDS011;25686;51.908;10.418;2023-03-23T04:43:46;4.03;;;2.38;;
39994;SDS011;25686;51.908;10.418;2023-03-23T04:45:56;5.57;;;2.50;;
39994;SDS011;25686;51.908;10.418;2023-03-23T04:47:57;5.28;;;2.58;;
39994;SDS011;25686;51.908;10.418;2023-03-23T04:49:58;4.68;;;2.63;;
39994;SDS011;25686;51.908;10.418;2023-03-23T04:52:00;6.03;;;2.90;;
39994;SDS011;25686;51.908;10.418;2023-03-23T04:54:00;5.47;;;2.55;;
39994;SDS011;25686;51.908;10.418;2023-03-23T04:56:01;7.05;;;2.40;;
39994;SDS011;25686;51.908;10.418;2023-03-23T04:58:03;6.70;;;2.63;;
39994;SDS011;25686;51.908;10.418;2023-03-23T05:00:04;3.03;;;1.83;;
39994;SDS011;25686;51.908;10.418;2023-03-23T05:02:11;2.78;;;2.15;;
39994;SDS011;25686;51.908;10.418;2023-03-23T05:04:12;3.17;;;2.08;;
39994;SDS011;25686;51.908;10.418;2023-03-23T05:06:16;3.38;;;2.13;;
39994;SDS011;25686;51.908;10.418;2023-03-23T05:08:18;2.10;;;1.90;;
39994;SDS011;25686;51.908;10.418;2023-03-23T05:10:19;5.53;;;2.10;;
39994;SDS011;25686;51.908;10.418;2023-03-23T05:12:20;3.38;;;2.10;;
39994;SDS011;25686;51.908;10.418;2023-03-23T05:14:21;2.92;;;2.17;;
39994;SDS011;25686;51.908;10.418;2023-03-23T05:16:22;2.15;;;1.95;;
39994;SDS011;25686;51.908;10.418;2023-03-23T05:18:23;3.78;;;1.90;;
39994;SDS011;25686;51.908;10.418;2023-03-23T05:20:26;5.60;;;2.00;;
39994;SDS011;25686;51.908;10.418;2023-03-23T05:22:27;2.88;;;1.90;;
39994;SDS011;25686;51.908;10.418;2023-03-23T05:24:31;3.90;;;2.00;;
39994;SDS011;25686;51.908;10.418;2023-03-23T05:26:32;2.95;;;1.85;;
39994;SDS011;25686;51.908;10.418;2023-03-23T05:28:33;3.47;;;2.10;;
39994;SDS011;25686;51.908;10.418;2023-03-23T05:30:36;4.18;;;1.73;;
39994;SDS011;25686;51.908;10.418;2023-03-23T05:32:38;3.10;;;1.90;;
39994;SDS011;25686;51.908;10.418;2023-03-23T05:34:39;3.35;;;2.13;;
39994;SDS011;25686;51.908;10.418;2023-03-23T05:36:42;4.18;;;2.35;;
39994;SDS011;25686;51.908;10.418;2023-03-23T05:38:43;2.58;;;1.92;;
39994;SDS011;25686;51.908;10.418;2023-03-23T05:40:47;4.90;;;1.80;;
39994;SDS011;25686;51.908;10.418;2023-03-23T05:42:48;1.95;;;1.70;;
39994;SDS011;25686;51.908;10.418;2023-03-23T05:44:49;2.17;;;1.65;;
39994;SDS011;25686;51.908;10.418;2023-03-23T05:46:50;2.22;;;1.45;;
39994;SDS011;25686;51.908;10.418;2023-03-23T05:48:51;2.42;;;1.95;;
39994;SDS011;25686;51.908;10.418;2023-03-23T05:50:53;4.18;;;1.88;;
39994;SDS011;25686;51.908;10.418;2023-03-23T05:52:54;3.30;;;1.48;;
39994;SDS011;25686;51.908;10.418;2023-03-23T05:54:55;2.58;;;2.20;;
39994;SDS011;25686;51.908;10.418;2023-03-23T05:56:56;3.42;;;1.88;;
39994;SDS011;25686;51.908;10.418;2023-03-23T05:58:57;3.95;;;2.00;;
39994;SDS011;25686;51.908;10.418;2023-03-23T06:00:58;2.92;;;1.73;;
39994;SDS011;25686;51.908;10.418;2023-03-23T06:02:59;2.28;;;1.67;;
39994;SDS011;25686;51.908;10.418;2023-03-23T06:05:01;2.00;;;1.30;;
39994;SDS011;25686;51.908;10.418;2023-03-23T06:07:02;2.03;;;1.60;;
39994;SDS011;25686;51.908;10.418;2023-03-23T06:09:03;1.38;;;1.27;;
39994;SDS011;25686;51.908;10.418;2023-03-23T06:11:04;3.10;;;1.48;;
39994;SDS011;25686;51.908;10.418;2023-03-23T06:13:06;2.10;;;1.40;;
39994;SDS011;25686;51.908;10.418;2023-03-23T06:15:08;2.97;;;1.40;;
39994;SDS011;25686;51.908;10.418;2023-03-23T06:17:09;2.67;;;1.55;;
39994;SDS011;25686;51.908;10.418;2023-03-23T06:19:10;1.48;;;1.38;;
39994;SDS011;25686;51.908;10.418;2023-03-23T06:21:11;2.47;;;1.40;;
39994;SDS011;25686;51.908;10.418;2023-03-23T06:23:12;2.92;;;1.50;;
39994;SDS011;25686;51.908;10.418;2023-03-23T06:25:13;1.83;;;1.30;;
39994;SDS011;25686;51.908;10.418;2023-03-23T06:27:15;2.17;;;1.20;;
39994;SDS011;25686;51.908;10.418;2023-03-23T06:29:17;1.75;;;1.50;;
39994;SDS011;25686;51.908;10.418;2023-03-23T06:31:18;1.25;;;1.05;;
39994;SDS011;25686;51.908;10.418;2023-03-23T06:33:20;2.65;;;1.30;;
39994;SDS011;25686;51.908;10.418;2023-03-23T06:35:21;2.42;;;1.30;;
39994;SDS011;25686;51.908;10.418;2023-03-23T06:37:22;3.42;;;1.70;;
39994;SDS011;25686;51.908;10.418;2023-03-23T06:39:24;4.15;;;1.70;;
39994;SDS011;25686;51.908;10.418;2023-03-23T06:41:25;2.58;;;1.50;;
39994;SDS011;25686;51.908;10.418;2023-03-23T06:43:26;2.53;;;1.70;;
39994;SDS011;25686;51.908;10.418;2023-03-23T06:45:27;3.20;;;1.52;;
39994;SDS011;25686;51.908;10.418;2023-03-23T06:47:28;3.72;;;1.52;;
39994;SDS011;25686;51.908;10.418;2023-03-23T06:49:32;2.63;;;1.30;;
39994;SDS011;25686;51.908;10.418;2023-03-23T06:51:33;3.08;;;1.23;;
39994;SDS011;25686;51.908;10.418;2023-03-23T06:53:34;1.60;;;1.23;;
39994;SDS011;25686;51.908;10.418;2023-03-23T06:55:35;2.20;;;1.25;;
39994;SDS011;25686;51.908;10.418;2023-03-23T06:57:36;2.58;;;1.30;;
39994;SDS011;25686;51.908;10.418;2023-03-23T06:59:37;3.03;;;1.10;;
39994;SDS011;25686;51.908;10.418;2023-03-23T07:01:38;2.15;;;1.13;;
39994;SDS011;25686;51.908;10.418;2023-03-23T07:03:39;2.60;;;1.25;;
39994;SDS011;25686;51.908;10.418;2023-03-23T07:05:40;1.98;;;1.45;;
39994;SDS011;25686;51.908;10.418;2023-03-23T07:07:41;1.10;;;1.00;;
39994;SDS011;25686;51.908;10.418;2023-03-23T07:09:42;2.10;;;1.25;;
39994;SDS011;25686;51.908;10.418;2023-03-23T07:11:43;2.47;;;1.30;;
39994;SDS011;25686;51.908;10.418;2023-03-23T07:13:47;2.92;;;1.30;;
39994;SDS011;25686;51.908;10.418;2023-03-23T07:15:49;2.40;;;1.23;;
39994;SDS011;25686;51.908;10.418;2023-03-23T07:17:50;1.85;;;1.08;;
39994;SDS011;25686;51.908;10.418;2023-03-23T07:19:51;2.05;;;1.10;;
39994;SDS011;25686;51.908;10.418;2023-03-23T07:21:52;4.18;;;1.73;;
39994;SDS011;25686;51.908;10.418;2023-03-23T07:23:53;3.35;;;1.38;;
39994;SDS011;25686;51.908;10.418;2023-03-23T07:25:54;2.05;;;1.30;;
39994;SDS011;25686;51.908;10.418;2023-03-23T07:27:55;2.55;;;1.10;;
39994;SDS011;25686;51.908;10.418;2023-03-23T07:29:56;2.50;;;1.33;;
39994;SDS011;25686;51.908;10.418;2023-03-23T07:31:57;2.00;;;1.08;;
39994;SDS011;25686;51.908;10.418;2023-03-23T07:33:58;1.58;;;1.23;;
39994;SDS011;25686;51.908;10.418;2023-03-23T07:36:01;2.47;;;1.38;;
39994;SDS011;25686;51.908;10.418;2023-03-23T07:38:03;1.33;;;1.10;;
39994;SDS011;25686;51.908;10.418;2023-03-23T07:40:04;3.92;;;1.35;;
39994;SDS011;25686;51.908;10.418;2023-03-23T07:42:14;2.03;;;1.35;;
39994;SDS011;25686;51.908;10.418;2023-03-23T07:44:15;2.55;;;1.35;;
39994;SDS011;25686;51.908;10.418;2023-03-23T07:46:16;1.63;;;1.27;;
39994;SDS011;25686;51.908;10.418;2023-03-23T07:48:17;2.05;;;1.30;;
39994;SDS011;25686;51.908;10.418;2023-03-23T07:50:18;5.50;;;1.08;;
39994;SDS011;25686;51.908;10.418;2023-03-23T07:52:22;2.40;;;1.27;;
39994;SDS011;25686;51.908;10.418;2023-03-23T07:54:24;3.03;;;0.90;;
39994;SDS011;25686;51.908;10.418;2023-03-23T07:56:25;2.00;;;1.23;;
39994;SDS011;25686;51.908;10.418;2023-03-23T07:58:26;1.60;;;1.10;;
39994;SDS011;25686;51.908;10.418;2023-03-23T08:00:28;1.58;;;1.00;;
39994;SDS011;25686;51.908;10.418;2023-03-23T08:02:29;1.95;;;1.00;;
39994;SDS011;25686;51.908;10.418;2023-03-23T08:04:31;1.35;;;1.00;;
39994;SDS011;25686;51.908;10.418;2023-03-23T08:06:36;2.22;;;1.10;;
39994;SDS011;25686;51.908;10.418;2023-03-23T08:08:39;1.95;;;1.05;;
39994;SDS011;25686;51.908;10.418;2023-03-23T08:10:40;2.42;;;1.20;;
39994;SDS011;25686;51.908;10.418;2023-03-23T08:12:41;1.20;;;1.10;;
39994;SDS011;25686;51.908;10.418;2023-03-23T08:14:43;1.17;;;0.80;;
39994;SDS011;25686;51.908;10.418;2023-03-23T08:16:44;1.30;;;0.93;;
39994;SDS011;25686;51.908;10.418;2023-03-23T08:18:45;1.48;;;0.90;;
39994;SDS011;25686;51.908;10.418;2023-03-23T08:20:46;2.05;;;1.00;;
39994;SDS011;25686;51.908;10.418;2023-03-23T08:22:50;3.05;;;1.00;;
39994;SDS011;25686;51.908;10.418;2023-03-23T08:24:52;2.70;;;1.30;;
39994;SDS011;25686;51.908;10.418;2023-03-23T08:26:53;1.73;;;1.10;;
39994;SDS011;25686;51.908;10.418;2023-03-23T08:28:54;1.08;;;0.98;;
39994;SDS011;25686;51.908;10.418;2023-03-23T08:30:55;1.70;;;1.20;;
39994;SDS011;25686;51.908;10.418;2023-03-23T08:32:57;1.20;;;1.00;;
39994;SDS011;25686;51.908;10.418;2023-03-23T08:34:58;1.20;;;1.10;;
39994;SDS011;25686;51.908;10.418;2023-03-23T08:36:59;3.20;;;1.35;;
39994;SDS011;25686;51.908;10.418;2023-03-23T08:39:01;3.38;;;0.93;;
39994;SDS011;25686;51.908;10.418;2023-03-23T08:41:05;2.60;;;1.17;;
39994;SDS011;25686;51.908;10.418;2023-03-23T08:43:07;2.13;;;1.10;;
39994;SDS011;25686;51.908;10.418;2023-03-23T08:45:09;1.30;;;1.15;;
39994;SDS011;25686;51.908;10.418;2023-03-23T08:47:11;2.08;;;1.20;;
39994;SDS011;25686;51.908;10.418;2023-03-23T08:49:12;3.55;;;1.33;;
39994;SDS011;25686;51.908;10.418;2023-03-23T08:51:13;2.20;;;1.50;;
39994;SDS011;25686;51.908;10.418;2023-03-23T08:53:14;3.40;;;1.15;;
39994;SDS011;25686;51.908;10.418;2023-03-23T08:55:16;2.95;;;1.40;;
39994;SDS011;25686;51.908;10.418;2023-03-23T08:57:17;3.47;;;1.30;;
39994;SDS011;25686;51.908;10.418;2023-03-23T08:59:18;2.85;;;1.40;;
39994;SDS011;25686;51.908;10.418;2023-03-23T09:01:19;2.10;;;1.35;;
39994;SDS011;25686;51.908;10.418;2023-03-23T09:03:20;1.83;;;1.27;;
39994;SDS011;25686;51.908;10.418;2023-03-23T09:05:22;2.53;;;1.42;;
39994;SDS011;25686;51.908;10.418;2023-03-23T09:07:24;3.40;;;1.27;;
39994;SDS011;25686;51.908;10.418;2023-03-23T09:09:25;5.57;;;1.35;;
39994;SDS011;25686;51.908;10.418;2023-03-23T09:11:26;1.83;;;1.30;;
39994;SDS011;25686;51.908;10.418;2023-03-23T09:13:27;2.83;;;1.30;;
39994;SDS011;25686;51.908;10.418;2023-03-23T09:15:28;2.30;;;1.08;;
39994;SDS011;25686;51.908;10.418;2023-03-23T09:17:29;3.53;;;1.33;;
39994;SDS011;25686;51.908;10.418;2023-03-23T09:19:32;9.88;;;2.17;;
39994;SDS011;25686;51.908;10.418;2023-03-23T09:21:33;8.20;;;1.77;;
39994;SDS011;25686;51.908;10.418;2023-03-23T09:23:34;3.28;;;1.20;;
39994;SDS011;25686;51.908;10.418;2023-03-23T09:25:35;3.08;;;1.40;;
39994;SDS011;25686;51.908;10.418;2023-03-23T09:27:36;2.55;;;1.30;;
39994;SDS011;25686;51.908;10.418;2023-03-23T09:29:39;2.40;;;1.40;;
39994;SDS011;25686;51.908;10.418;2023-03-23T09:31:40;3.35;;;1.15;;
39994;SDS011;25686;51.908;10.418;2023-03-23T09:33:42;2.25;;;1.10;;
39994;SDS011;25686;51.908;10.418;2023-03-23T09:35:45;4.88;;;1.27;;
39994;SDS011;25686;51.908;10.418;2023-03-23T09:37:46;2.42;;;1.38;;
39994;SDS011;25686;51.908;10.418;2023-03-23T09:39:48;2.53;;;1.10;;
39994;SDS011;25686;51.908;10.418;2023-03-23T09:42:12;2.10;;;1.20;;
39994;SDS011;25686;51.908;10.418;2023-03-23T09:48:27;3.28;;;1.33;;
39994;SDS011;25686;51.908;10.418;2023-03-23T09:50:30;3.47;;;1.52;;
39994;SDS011;25686;51.908;10.418;2023-03-23T09:52:36;3.08;;;1.40;;
39994;SDS011;25686;51.908;10.418;2023-03-23T09:54:39;2.70;;;1.40;;
39994;SDS011;25686;51.908;10.418;2023-03-23T09:56:40;4.70;;;1.20;;
39994;SDS011;25686;51.908;10.418;2023-03-23T09:58:45;3.58;;;1.45;;
39994;SDS011;25686;51.908;10.418;2023-03-23T10:00:49;4.18;;;1.40;;
39994;SDS011;25686;51.908;10.418;2023-03-23T10:02:59;2.97;;;1.40;;
39994;SDS011;25686;51.908;10.418;2023-03-23T10:07:17;3.38;;;1.35;;
39994;SDS011;25686;51.908;10.418;2023-03-23T10:09:19;3.28;;;1.30;;
39994;SDS011;25686;51.908;10.418;2023-03-23T10:11:30;3.13;;;1.40;;
39994;SDS011;25686;51.908;10.418;2023-03-23T10:15:39;5.72;;;1.30;;
39994;SDS011;25686;51.908;10.418;2023-03-23T10:18:25;3.38;;;1.30;;
39994;SDS011;25686;51.908;10.418;2023-03-23T10:22:16;5.50;;;1.30;;
39994;SDS011;25686;51.908;10.418;2023-03-23T10:24:23;3.13;;;1.40;;
39994;SDS011;25686;51.908;10.418;2023-03-23T10:28:39;5.75;;;1.33;;
39994;SDS011;25686;51.908;10.418;2023-03-23T10:30:41;7.97;;;1.90;;
39994;SDS011;25686;51.908;10.418;2023-03-23T10:32:43;6.65;;;1.80;;
39994;SDS011;25686;51.908;10.418;2023-03-23T10:36:55;7.20;;;1.55;;
39994;SDS011;25686;51.908;10.418;2023-03-23T10:41:04;3.92;;;1.50;;
39994;SDS011;25686;51.908;10.418;2023-03-23T10:43:08;4.28;;;1.75;;
39994;SDS011;25686;51.908;10.418;2023-03-23T10:47:13;3.92;;;1.20;;
39994;SDS011;25686;51.908;10.418;2023-03-23T10:49:19;2.60;;;1.38;;
39994;SDS011;25686;51.908;10.418;2023-03-23T10:51:25;4.40;;;1.40;;
39994;SDS011;25686;51.908;10.418;2023-03-23T10:53:29;2.95;;;1.40;;
39994;SDS011;25686;51.908;10.418;2023-03-23T10:55:36;4.80;;;1.60;;
39994;SDS011;25686;51.908;10.418;2023-03-23T10:57:39;2.13;;;1.20;;
39994;SDS011;25686;51.908;10.418;2023-03-23T10:59:41;2.50;;;1.33;;
39994;SDS011;25686;51.908;10.418;2023-03-23T11:01:43;1.63;;;1.15;;
39994;SDS011;25686;51.908;10.418;2023-03-23T11:03:46;2.20;;;1.38;;
39994;SDS011;25686;51.908;10.418;2023-03-23T11:06:05;1.92;;;1.20;;
39994;SDS011;25686;51.908;10.418;2023-03-23T11:08:13;2.45;;;1.40;;
39994;SDS011;25686;51.908;10.418;2023-03-23T11:10:25;3.47;;;1.73;;
39994;SDS011;25686;51.908;10.418;2023-03-23T11:12:26;4.47;;;1.42;;
39994;SDS011;25686;51.908;10.418;2023-03-23T11:14:28;3.95;;;1.30;;
39994;SDS011;25686;51.908;10.418;2023-03-23T11:16:30;3.92;;;1.50;;
39994;SDS011;25686;51.908;10.418;2023-03-23T11:18:39;2.70;;;1.20;;
39994;SDS011;25686;51.908;10.418;2023-03-23T11:20:41;2.88;;;1.52;;
39994;SDS011;25686;51.908;10.418;2023-03-23T11:22:42;2.72;;;1.30;;
39994;SDS011;25686;51.908;10.418;2023-03-23T11:24:47;1.40;;;1.05;;
39994;SDS011;25686;51.908;10.418;2023-03-23T11:26:52;5.15;;;1.60;;
39994;SDS011;25686;51.908;10.418;2023-03-23T11:28:58;1.85;;;1.23;;
39994;SDS011;25686;51.908;10.418;2023-03-23T11:31:00;3.08;;;1.30;;
39994;SDS011;25686;51.908;10.418;2023-03-23T11:33:02;5.00;;;1.60;;
39994;SDS011;25686;51.908;10.418;2023-03-23T11:35:04;2.95;;;1.23;;
39994;SDS011;25686;51.908;10.418;2023-03-23T11:37:09;3.55;;;1.33;;
39994;SDS011;25686;51.908;10.418;2023-03-23T11:39:27;2.75;;;1.30;;
39994;SDS011;25686;51.908;10.418;2023-03-23T11:41:29;3.05;;;1.40;;
39994;SDS011;25686;51.908;10.418;2023-03-23T11:43:30;2.75;;;1.20;;
39994;SDS011;25686;51.908;10.418;2023-03-23T11:45:39;1.65;;;1.20;;
39994;SDS011;25686;51.908;10.418;2023-03-23T11:47:43;3.53;;;1.40;;
39994;SDS011;25686;51.908;10.418;2023-03-23T11:51:51;3.42;;;1.10;;
39994;SDS011;25686;51.908;10.418;2023-03-23T11:54:01;4.32;;;1.30;;
39994;SDS011;25686;51.908;10.418;2023-03-23T11:56:23;4.97;;;1.42;;
39994;SDS011;25686;51.908;10.418;2023-03-23T11:58:27;4.32;;;1.52;;
39994;SDS011;25686;51.908;10.418;2023-03-23T12:00:32;3.83;;;1.55;;
39994;SDS011;25686;51.908;10.418;2023-03-23T12:07:14;4.72;;;1.40;;
39994;SDS011;25686;51.908;10.418;2023-03-23T12:09:28;3.60;;;1.30;;
39994;SDS011;25686;51.908;10.418;2023-03-23T12:13:53;3.40;;;1.30;;
39994;SDS011;25686;51.908;10.418;2023-03-23T12:16:00;3.72;;;1.40;;
39994;SDS011;25686;51.908;10.418;2023-03-23T12:24:35;5.80;;;1.40;;
39994;SDS011;25686;51.908;10.418;2023-03-23T12:31:01;3.30;;;1.10;;
39994;SDS011;25686;51.908;10.418;2023-03-23T12:33:09;3.42;;;1.08;;
39994;SDS011;25686;51.908;10.418;2023-03-23T12:37:22;3.90;;;1.10;;
39994;SDS011;25686;51.908;10.418;2023-03-23T12:39:31;5.15;;;1.30;;
39994;SDS011;25686;51.908;10.418;2023-03-23T12:41:44;3.88;;;1.50;;
39994;SDS011;25686;51.908;10.418;2023-03-23T12:43:58;4.03;;;1.10;;
39994;SDS011;25686;51.908;10.418;2023-03-23T12:48:23;4.78;;;1.38;;
39994;SDS011;25686;51.908;10.418;2023-03-23T12:52:30;4.90;;;1.20;;
39994;SDS011;25686;51.908;10.418;2023-03-23T12:54:35;3.63;;;1.20;;
39994;SDS011;25686;51.908;10.418;2023-03-23T12:56:43;5.40;;;1.35;;
39994;SDS011;25686;51.908;10.418;2023-03-23T12:58:49;3.33;;;1.23;;
39994;SDS011;25686;51.908;10.418;2023-03-23T13:03:03;2.83;;;1.00;;
39994;SDS011;25686;51.908;10.418;2023-03-23T13:05:08;3.80;;;1.38;;
39994;SDS011;25686;51.908;10.418;2023-03-23T13:07:12;6.78;;;1.40;;
39994;SDS011;25686;51.908;10.418;2023-03-23T13:09:17;2.70;;;1.20;;